createdAt,value
2022-08-31T12:07:44.081Z,34.70
2022-08-31T12:10:34.573Z,35.00
2022-08-31T12:13:09.720Z,35.40
2022-08-31T12:15:38.952Z,35.40
2022-08-31T12:18:38.761Z,35.50
2022-08-31T12:22:06.176Z,35.50
2022-08-31T12:24:58.784Z,35.90
2022-08-31T12:28:07.981Z,36.50
2022-08-31T12:30:36.637Z,36.70
2022-08-31T12:33:19.511Z,36.60
2022-08-31T12:36:14.852Z,36.70
2022-08-31T12:38:42.609Z,36.30
2022-08-31T12:41:14.846Z,35.30
2022-08-31T12:43:49.439Z,34.80
2022-08-31T12:46:47.353Z,34.70
2022-08-31T12:49:36.545Z,34.60
2022-08-31T12:52:06.920Z,34.90
2022-08-31T12:55:00.263Z,35.30
2022-08-31T12:57:51.949Z,35.80
2022-08-31T13:00:31.287Z,36.50
2022-08-31T13:03:17.601Z,37.10
2022-08-31T13:06:10.111Z,37.30
2022-08-31T13:08:43.195Z,36.90
2022-08-31T13:11:40.920Z,36.10
2022-08-31T13:14:27.262Z,35.90
2022-08-31T13:17:11.853Z,35.90
2022-08-31T13:19:53.527Z,36.00
2022-08-31T13:22:39.725Z,36.10
2022-08-31T13:25:38.751Z,36.00
2022-08-31T13:28:13.175Z,35.80
2022-08-31T13:30:55.055Z,35.50
2022-08-31T13:33:35.113Z,35.60
2022-08-31T13:36:36.135Z,35.80
2022-08-31T13:39:44.913Z,36.00
2022-08-31T13:42:41.555Z,35.80
2022-08-31T13:45:41.286Z,35.50
2022-08-31T13:48:24.546Z,35.50
2022-08-31T13:51:03.569Z,35.50
2022-08-31T13:53:46.186Z,35.80
2022-08-31T13:56:44.448Z,36.20
2022-08-31T13:59:24.854Z,35.90
2022-08-31T14:01:58.651Z,35.30
2022-08-31T14:04:45.980Z,35.40
2022-08-31T14:07:24.020Z,35.80
2022-08-31T14:10:00.621Z,36.10
2022-08-31T14:12:37.504Z,36.30
2022-08-31T14:15:11.240Z,36.90
2022-08-31T14:20:39.902Z,37.30
2022-08-31T14:23:30.716Z,37.10
2022-08-31T14:26:08.042Z,36.70
2022-08-31T14:28:43.381Z,36.80
2022-08-31T14:31:37.095Z,37.00
2022-08-31T14:34:35.160Z,36.60
2022-08-31T14:37:17.153Z,35.80
2022-08-31T14:39:49.334Z,35.80
2022-08-31T14:42:28.967Z,36.20
2022-08-31T14:45:03.364Z,36.70
2022-08-31T14:47:36.683Z,37.30
2022-08-31T14:50:07.498Z,37.60
2022-08-31T14:52:55.497Z,37.70
2022-08-31T14:55:26.067Z,37.70
2022-08-31T14:58:08.972Z,37.60
2022-08-31T15:00:51.181Z,37.40
2022-08-31T15:03:24.650Z,37.00
2022-08-31T15:05:52.318Z,36.60
2022-08-31T15:08:20.444Z,36.60
2022-08-31T15:10:54.683Z,36.60
2022-08-31T15:13:23.801Z,36.60
2022-08-31T15:15:55.295Z,36.40
2022-08-31T15:18:25.106Z,36.10
2022-08-31T15:20:56.169Z,35.90
2022-08-31T15:23:23.762Z,35.80
2022-08-31T15:25:51.364Z,35.60
2022-08-31T15:28:19.022Z,35.30
2022-08-31T15:30:46.878Z,35.00
2022-08-31T15:33:14.979Z,34.50
2022-08-31T15:35:44.785Z,33.70
2022-08-31T15:38:12.653Z,32.90
2022-08-31T15:40:40.266Z,32.20
2022-08-31T15:43:15.327Z,31.60
2022-08-31T15:45:43.791Z,30.90
2022-08-31T15:48:29.857Z,30.20
2022-08-31T15:51:06.208Z,29.80
2022-08-31T15:53:35.667Z,29.30
2022-08-31T15:56:06.643Z,28.70
2022-08-31T15:58:35.896Z,28.20
2022-08-31T16:01:06.307Z,27.70
2022-08-31T16:03:35.454Z,27.40
2022-08-31T16:06:05.920Z,27.00
2022-08-31T16:08:33.509Z,26.80
2022-08-31T16:11:01.257Z,26.50
2022-08-31T16:13:31.955Z,26.30
2022-08-31T16:16:01.526Z,26.10
2022-08-31T16:18:29.201Z,25.80
2022-08-31T16:21:05.312Z,25.60
2022-08-31T16:23:33.335Z,25.40
2022-08-31T16:26:00.972Z,25.30
2022-08-31T16:28:28.758Z,25.20
2022-08-31T16:30:56.518Z,25.10
2022-08-31T16:33:24.047Z,25.10
2022-08-31T16:35:51.695Z,25.00
2022-08-31T16:38:19.754Z,24.90
2022-08-31T16:40:47.590Z,24.80
2022-08-31T16:43:15.198Z,24.70
2022-08-31T16:45:42.919Z,24.60
2022-08-31T16:48:29.973Z,24.60
2022-08-31T16:51:02.842Z,24.50
2022-08-31T16:53:31.774Z,24.40
2022-08-31T16:56:00.249Z,24.30
2022-08-31T16:58:51.008Z,24.30
2022-08-31T17:01:25.831Z,24.10
2022-08-31T17:04:00.513Z,24.10
2022-08-31T17:06:33.999Z,24.00
2022-08-31T17:09:06.617Z,23.70
2022-08-31T17:11:47.758Z,23.50
2022-08-31T17:14:35.882Z,23.40
2022-08-31T17:17:06.896Z,23.30
2022-08-31T17:19:37.708Z,23.40
2022-08-31T17:22:09.908Z,23.50
2022-08-31T17:24:43.332Z,23.50
2022-08-31T17:27:18.592Z,23.60
2022-08-31T17:29:50.020Z,23.60
2022-08-31T17:32:22.689Z,23.50
2022-08-31T17:34:52.288Z,23.50
2022-08-31T17:37:26.670Z,23.40
2022-08-31T17:39:57.084Z,23.30
2022-08-31T17:42:29.785Z,23.20
2022-08-31T17:44:58.894Z,23.00
2022-08-31T17:47:26.922Z,22.80
2022-08-31T17:49:55.092Z,22.60
2022-08-31T17:52:23.910Z,22.40
2022-08-31T17:54:51.856Z,22.20
2022-08-31T17:57:25.360Z,21.90
2022-08-31T17:59:57.835Z,21.70
2022-08-31T18:02:33.350Z,21.40
2022-08-31T18:05:02.646Z,21.20
2022-08-31T18:07:30.324Z,20.90
2022-08-31T18:09:57.934Z,20.70
2022-08-31T18:12:26.257Z,20.60
2022-08-31T18:14:57.721Z,20.50
2022-08-31T18:17:26.698Z,20.30
2022-08-31T18:19:58.740Z,20.20
2022-08-31T18:22:30.637Z,20.10
2022-08-31T18:25:00.796Z,19.90
2022-08-31T18:27:29.462Z,19.80
2022-08-31T18:29:59.134Z,19.60
2022-08-31T18:32:28.168Z,19.40
2022-08-31T18:34:57.456Z,18.90
2022-08-31T18:37:26.153Z,18.30
2022-08-31T18:40:12.713Z,17.80
2022-08-31T18:42:59.305Z,17.30
2022-08-31T18:45:31.597Z,16.90
2022-08-31T18:48:24.465Z,16.50
2022-08-31T18:50:52.661Z,16.20
2022-08-31T18:53:27.833Z,15.90
2022-08-31T18:56:09.917Z,15.70
2022-08-31T18:58:39.328Z,15.60
2022-08-31T19:01:12.604Z,15.40
2022-08-31T19:03:41.556Z,15.30
2022-08-31T19:06:16.894Z,15.20
2022-08-31T19:08:45.699Z,15.10
2022-08-31T19:11:13.846Z,15.00
2022-08-31T19:13:42.082Z,15.00
2022-08-31T19:16:22.149Z,15.00
2022-08-31T19:18:51.588Z,15.00
2022-08-31T19:21:26.843Z,14.90
2022-08-31T19:23:56.096Z,14.80
2022-08-31T19:26:31.818Z,14.80
2022-08-31T19:29:01.061Z,14.70
2022-08-31T19:31:30.424Z,14.60
2022-08-31T19:33:58.574Z,14.50
2022-08-31T19:36:30.647Z,14.50
2022-08-31T19:38:59.656Z,14.50
2022-08-31T19:41:28.657Z,14.40
2022-08-31T19:44:07.612Z,14.40
2022-08-31T19:46:40.672Z,14.30
2022-08-31T19:49:11.302Z,14.20
2022-08-31T19:51:51.889Z,14.20
2022-08-31T19:54:21.419Z,14.10
2022-08-31T19:56:49.326Z,14.00
2022-08-31T19:59:20.550Z,14.00
2022-08-31T20:08:51.154Z,13.90
2022-08-31T20:11:26.788Z,13.80
2022-08-31T20:13:57.613Z,13.80
2022-08-31T20:16:33.731Z,13.80
2022-08-31T20:19:04.315Z,13.70
2022-08-31T20:21:35.104Z,13.70
2022-08-31T20:24:07.838Z,13.60
2022-08-31T20:26:46.363Z,13.60
2022-08-31T20:29:20.832Z,13.60
2022-08-31T20:31:51.839Z,13.60
2022-08-31T20:34:22.429Z,13.70
2022-08-31T20:37:00.434Z,13.60
2022-08-31T20:39:31.577Z,13.70
2022-08-31T20:42:00.733Z,13.70
2022-08-31T20:44:36.164Z,13.90
2022-08-31T20:47:29.315Z,14.10
2022-08-31T20:50:00.390Z,14.30
2022-08-31T20:52:34.434Z,14.50
2022-08-31T20:55:04.829Z,14.80
2022-08-31T20:57:35.323Z,15.00
2022-08-31T21:00:06.043Z,15.30
2022-08-31T21:02:34.939Z,15.50
2022-08-31T21:05:33.916Z,15.60
2022-08-31T21:07:57.664Z,15.70
2022-08-31T21:10:37.647Z,15.80
2022-08-31T21:13:12.722Z,15.80
2022-08-31T21:15:45.115Z,15.90
2022-08-31T21:18:17.915Z,15.90
2022-08-31T21:20:46.872Z,15.90
2022-08-31T21:23:14.737Z,15.80
2022-08-31T21:25:46.865Z,15.70
2022-08-31T21:28:20.488Z,15.50
2022-08-31T21:30:50.577Z,15.30
2022-08-31T21:33:19.258Z,15.10
2022-08-31T21:35:47.901Z,14.80
2022-08-31T21:38:16.775Z,14.60
2022-08-31T21:40:50.089Z,14.30
2022-08-31T21:43:18.560Z,14.10
2022-08-31T21:45:47.003Z,13.90
2022-08-31T21:48:16.945Z,13.80
2022-08-31T21:50:50.007Z,13.80
2022-08-31T21:53:17.808Z,13.80
2022-08-31T21:55:46.285Z,13.80
2022-08-31T21:58:13.931Z,13.80
2022-08-31T22:00:43.119Z,13.80
2022-08-31T22:03:12.717Z,13.80
2022-08-31T22:05:41.980Z,13.70
2022-08-31T22:08:10.433Z,13.70
2022-08-31T22:10:44.447Z,13.60
2022-08-31T22:13:13.972Z,13.60
2022-08-31T22:15:43.153Z,13.60
2022-08-31T22:18:59.200Z,13.60
2022-08-31T22:21:00.059Z,13.60
2022-08-31T22:23:28.072Z,13.60
2022-08-31T22:25:58.734Z,13.50
2022-08-31T22:28:29.355Z,13.50
2022-08-31T22:30:57.173Z,13.50
2022-08-31T22:33:24.719Z,13.40
2022-08-31T22:35:52.919Z,13.20
2022-08-31T22:38:20.891Z,13.00
2022-08-31T22:40:49.005Z,12.70
2022-08-31T23:13:10.077Z,11.50
2022-08-31T23:15:39.142Z,11.20
2022-08-31T23:18:10.175Z,11.10
2022-08-31T23:20:39.159Z,11.00
2022-08-31T23:23:07.218Z,10.90
2022-08-31T23:25:53.878Z,10.90
2022-08-31T23:28:21.629Z,10.90
2022-08-31T23:30:52.239Z,10.90
2022-08-31T23:33:20.298Z,10.80
2022-08-31T23:35:48.521Z,10.60
